createdAt,value
2023-04-03T00:00:04.269Z,2.37
2023-04-03T00:01:04.256Z,2.39
2023-04-03T00:02:04.385Z,2.40
2023-04-03T00:03:04.312Z,2.42
2023-04-03T00:04:04.396Z,2.45
2023-04-03T00:05:04.349Z,2.46
2023-04-03T00:06:04.352Z,2.49
2023-04-03T00:07:04.425Z,2.50
2023-04-03T00:08:04.394Z,2.53
2023-04-03T00:09:04.430Z,2.52
2023-04-03T00:10:04.414Z,2.53
2023-04-03T00:11:04.424Z,2.53
2023-04-03T00:12:04.423Z,2.54
2023-04-03T00:13:04.462Z,2.54
2023-04-03T00:14:04.447Z,2.55
2023-04-03T00:15:04.497Z,2.55
2023-04-03T00:16:04.496Z,2.54
2023-04-03T00:17:04.535Z,2.54
2023-04-03T00:18:04.514Z,2.52
2023-04-03T00:19:04.482Z,2.52
2023-04-03T00:20:04.490Z,2.52
2023-04-03T00:21:04.502Z,2.50
2023-04-03T00:22:04.519Z,2.50
2023-04-03T00:23:04.592Z,2.50
2023-04-03T00:24:04.570Z,2.48
2023-04-03T00:25:04.609Z,2.48
2023-04-03T00:26:04.598Z,2.46
2023-04-03T00:27:04.600Z,2.47
2023-04-03T00:28:04.647Z,2.49
2023-04-03T00:29:04.614Z,2.50
2023-04-03T00:30:04.600Z,2.50
2023-04-03T00:31:04.660Z,2.50
2023-04-03T00:32:04.627Z,2.50
2023-04-03T00:33:04.765Z,2.50
2023-04-03T00:34:04.700Z,2.50
2023-04-03T00:35:04.722Z,2.48
2023-04-03T00:36:04.757Z,2.47
2023-04-03T00:37:04.808Z,2.48
2023-04-03T00:38:04.768Z,2.49
2023-04-03T00:39:04.763Z,2.48
2023-04-03T00:40:04.841Z,2.47
2023-04-03T00:41:04.766Z,2.44
2023-04-03T00:42:04.823Z,2.43
2023-04-03T00:43:04.820Z,2.43
2023-04-03T00:44:04.829Z,2.44
2023-04-03T00:45:04.822Z,2.45
2023-04-03T00:46:04.873Z,2.46
2023-04-03T00:47:04.848Z,2.48
2023-04-03T00:48:04.898Z,2.49
2023-04-03T00:49:04.829Z,2.51
2023-04-03T00:50:04.838Z,2.53
2023-04-03T00:51:04.908Z,2.55
2023-04-03T00:52:04.910Z,2.55
2023-04-03T00:53:04.923Z,2.55
2023-04-03T00:54:04.935Z,2.56
2023-04-03T00:55:04.947Z,2.59
2023-04-03T00:56:04.959Z,2.59
2023-04-03T00:57:04.984Z,2.61
2023-04-03T00:58:04.998Z,2.62
2023-04-03T00:59:04.974Z,2.63
2023-04-03T01:00:04.991Z,2.62
2023-04-03T01:01:05.002Z,2.63
2023-04-03T01:02:05.026Z,2.63
2023-04-03T01:03:05.076Z,2.62
2023-04-03T01:04:05.145Z,2.62
2023-04-03T01:05:05.114Z,2.63
2023-04-03T01:06:05.051Z,2.66
2023-04-03T01:07:05.063Z,2.66
2023-04-03T01:08:05.119Z,2.66
2023-04-03T01:09:05.114Z,2.65
2023-04-03T01:10:05.150Z,2.63
2023-04-03T01:11:05.129Z,2.63
2023-04-03T01:12:05.153Z,2.64
2023-04-03T01:13:05.168Z,2.63
2023-04-03T01:14:05.184Z,2.64
2023-04-03T01:15:05.197Z,2.62
2023-04-03T01:16:05.211Z,2.64
2023-04-03T01:17:05.208Z,2.64
2023-04-03T01:18:05.238Z,2.65
2023-04-03T01:19:05.292Z,2.63
2023-04-03T01:20:05.242Z,2.65
2023-04-03T01:21:05.290Z,2.66
2023-04-03T01:22:05.251Z,2.67
2023-04-03T01:23:05.286Z,2.68
2023-04-03T01:24:05.292Z,2.66
2023-04-03T01:25:05.308Z,2.67
2023-04-03T01:26:26.358Z,2.66
2023-04-03T01:27:26.376Z,2.65
2023-04-03T01:28:26.368Z,2.65
2023-04-03T01:29:26.413Z,2.67
2023-04-03T01:30:26.366Z,2.68
2023-04-03T01:31:26.383Z,2.70
2023-04-03T01:32:26.413Z,2.71
2023-04-03T01:33:26.356Z,2.71
2023-04-03T01:34:26.382Z,2.71
2023-04-03T01:35:26.390Z,2.69
2023-04-03T01:36:26.388Z,2.68
2023-04-03T01:37:26.420Z,2.68
2023-04-03T01:38:26.419Z,2.68
2023-04-03T01:39:26.403Z,2.66
2023-04-03T01:40:26.443Z,2.65
2023-04-03T01:41:26.415Z,2.65
2023-04-03T01:42:26.403Z,2.66
2023-04-03T01:43:26.405Z,2.65
2023-04-03T01:44:26.405Z,2.66
2023-04-03T01:45:26.430Z,2.65
2023-04-03T01:46:26.442Z,2.67
2023-04-03T01:47:26.468Z,2.67
2023-04-03T01:48:26.406Z,2.69
2023-04-03T01:49:26.409Z,2.68
2023-04-03T01:50:26.405Z,2.70
2023-04-03T01:51:26.396Z,2.71
2023-04-03T01:52:26.386Z,2.71
2023-04-03T01:53:26.403Z,2.73
2023-04-03T01:54:26.427Z,2.72
2023-04-03T01:55:26.416Z,2.74
2023-04-03T01:56:26.422Z,2.74
2023-04-03T01:57:26.439Z,2.75
2023-04-03T01:58:26.417Z,2.75
2023-04-03T01:59:26.436Z,2.75
2023-04-03T02:00:26.427Z,2.76
2023-04-03T02:01:26.551Z,2.76
2023-04-03T02:02:26.566Z,2.76
2023-04-03T02:03:26.597Z,2.76
2023-04-03T02:04:26.676Z,2.75
2023-04-03T02:05:26.633Z,2.74
2023-04-03T02:06:26.604Z,2.75
2023-04-03T02:07:26.618Z,2.75
2023-04-03T02:08:26.638Z,2.74
2023-04-03T02:09:26.658Z,2.73
2023-04-03T02:10:26.673Z,2.72
2023-04-03T02:11:26.672Z,2.73
2023-04-03T02:12:26.683Z,2.72
2023-04-03T02:13:26.695Z,2.71
2023-04-03T02:14:26.734Z,2.71
2023-04-03T02:15:26.722Z,2.69
2023-04-03T02:16:26.773Z,2.69
2023-04-03T02:17:26.779Z,2.66
2023-04-03T02:18:26.742Z,2.63
2023-04-03T02:19:26.786Z,2.62
2023-04-03T02:20:26.765Z,2.60
2023-04-03T02:21:26.766Z,2.61
2023-04-03T02:22:26.772Z,2.59
2023-04-03T02:23:26.777Z,2.59
2023-04-03T02:24:26.800Z,2.59
2023-04-03T02:25:26.808Z,2.59
2023-04-03T02:26:26.824Z,2.59
2023-04-03T02:27:26.852Z,2.59
2023-04-03T02:28:26.830Z,2.58
2023-04-03T02:29:26.860Z,2.59
2023-04-03T02:30:26.865Z,2.59
2023-04-03T02:31:26.994Z,2.57
2023-04-03T02:32:26.911Z,2.58
2023-04-03T02:33:26.910Z,2.57
2023-04-03T02:34:26.903Z,2.57
2023-04-03T02:35:27.085Z,2.55
2023-04-03T02:36:26.983Z,2.54
2023-04-03T02:37:26.967Z,2.54
2023-04-03T02:38:26.958Z,2.53
2023-04-03T02:39:26.964Z,2.50
2023-04-03T02:40:26.977Z,2.49
2023-04-03T02:41:27.007Z,2.48
2023-04-03T02:42:27.006Z,2.45
2023-04-03T02:43:27.031Z,2.43
2023-04-03T02:44:27.027Z,2.42
2023-04-03T02:45:27.057Z,2.40
2023-04-03T02:46:27.144Z,2.36
2023-04-03T02:47:27.078Z,2.34
2023-04-03T02:48:27.092Z,2.32
2023-04-03T02:49:27.097Z,2.32
2023-04-03T02:50:27.132Z,2.31
2023-04-03T02:51:27.130Z,2.29
2023-04-03T02:52:27.160Z,2.30
2023-04-03T02:53:27.156Z,2.29
2023-04-03T02:54:27.152Z,2.29
2023-04-03T02:55:27.206Z,2.28
2023-04-03T02:56:27.186Z,2.29
2023-04-03T02:57:27.244Z,2.28
2023-04-03T02:58:27.197Z,2.28
2023-04-03T02:59:27.235Z,2.27
2023-04-03T03:00:27.247Z,2.28
2023-04-03T03:01:27.282Z,2.28
2023-04-03T03:02:27.353Z,2.28
2023-04-03T03:03:27.270Z,2.28
2023-04-03T03:04:27.280Z,2.27
2023-04-03T03:05:27.296Z,2.28
2023-04-03T03:06:27.330Z,2.29
2023-04-03T03:07:27.312Z,2.28
2023-04-03T03:08:27.362Z,2.28
2023-04-03T03:09:27.338Z,2.28
2023-04-03T03:10:27.385Z,2.30
2023-04-03T03:11:27.364Z,2.30
2023-04-03T03:12:27.368Z,2.32
2023-04-03T03:13:27.396Z,2.32
2023-04-03T03:14:27.418Z,2.34
2023-04-03T03:15:27.440Z,2.36
2023-04-03T03:16:27.623Z,2.39
2023-04-03T03:17:27.475Z,2.41
2023-04-03T03:18:27.484Z,2.43
2023-04-03T03:19:27.492Z,2.46
2023-04-03T03:20:27.506Z,2.47
2023-04-03T03:21:27.491Z,2.49
2023-04-03T03:22:27.499Z,2.49
2023-04-03T03:23:27.529Z,2.50
2023-04-03T03:24:27.570Z,2.49
2023-04-03T03:25:27.630Z,2.48
2023-04-03T03:26:27.588Z,2.48
2023-04-03T03:27:27.644Z,2.46
2023-04-03T03:28:27.588Z,2.45
2023-04-03T03:29:27.611Z,2.44
2023-04-03T03:30:27.615Z,2.42
2023-04-03T03:31:27.677Z,2.41
2023-04-03T03:32:27.739Z,2.38
2023-04-03T03:33:27.640Z,2.36
2023-04-03T03:34:27.633Z,2.33
2023-04-03T03:35:27.666Z,2.31
2023-04-03T03:36:27.679Z,2.30
2023-04-03T03:37:27.673Z,2.28
2023-04-03T03:38:27.702Z,2.29
2023-04-03T03:39:27.712Z,2.28
2023-04-03T03:40:27.794Z,2.28
2023-04-03T03:41:27.761Z,2.26
2023-04-03T03:42:27.761Z,2.23
2023-04-03T03:43:27.752Z,2.21
2023-04-03T03:44:27.794Z,2.19
2023-04-03T03:45:27.804Z,2.17
2023-04-03T03:46:27.865Z,2.14
2023-04-03T03:47:27.878Z,2.12
2023-04-03T03:48:27.820Z,2.11
2023-04-03T03:49:27.896Z,2.10
2023-04-03T03:50:27.835Z,2.08
2023-04-03T03:51:28.168Z,2.05
2023-04-03T03:52:27.883Z,2.02
2023-04-03T03:53:27.876Z,1.99
2023-04-03T03:54:27.958Z,1.96
2023-04-03T03:55:27.941Z,1.95
2023-04-03T03:56:27.960Z,1.93
2023-04-03T03:57:27.973Z,1.92
2023-04-03T03:58:27.947Z,1.92
2023-04-03T03:59:27.979Z,1.94
2023-04-03T04:00:27.990Z,1.94
2023-04-03T04:01:28.021Z,1.96
2023-04-03T04:02:28.076Z,1.95
2023-04-03T04:03:28.057Z,1.97
2023-04-03T04:04:28.094Z,1.96
2023-04-03T04:05:28.046Z,1.95
2023-04-03T04:06:28.080Z,1.94
2023-04-03T04:07:28.069Z,1.94
2023-04-03T04:08:28.101Z,1.92
2023-04-03T04:09:28.128Z,1.91
2023-04-03T04:10:28.177Z,1.89
2023-04-03T04:11:28.200Z,1.88
2023-04-03T04:12:28.168Z,1.87
2023-04-03T04:13:28.127Z,1.87
2023-04-03T04:14:28.141Z,1.86
2023-04-03T04:15:28.219Z,1.86
2023-04-03T04:16:28.209Z,1.88
2023-04-03T04:17:28.239Z,1.86
2023-04-03T04:18:28.232Z,1.86
2023-04-03T04:19:28.290Z,1.84
2023-04-03T04:20:28.266Z,1.82
2023-04-03T04:21:28.251Z,1.78
2023-04-03T04:22:28.320Z,1.77
2023-04-03T04:23:28.325Z,1.74
2023-04-03T04:24:28.256Z,1.70
2023-04-03T04:25:28.346Z,1.70
2023-04-03T04:26:28.304Z,1.67
2023-04-03T04:27:28.290Z,1.65
2023-04-03T04:28:28.367Z,1.63
2023-04-03T04:29:28.356Z,1.61
2023-04-03T04:30:28.372Z,1.60
2023-04-03T04:31:28.386Z,1.57
2023-04-03T04:32:28.458Z,1.56
2023-04-03T04:33:28.376Z,1.54
2023-04-03T04:34:28.370Z,1.53
2023-04-03T04:35:28.530Z,1.51
2023-04-03T04:36:28.427Z,1.50
2023-04-03T04:37:28.453Z,1.49
2023-04-03T04:38:28.468Z,1.48
2023-04-03T04:39:28.480Z,1.46
2023-04-03T04:40:28.448Z,1.47
2023-04-03T04:41:28.523Z,1.46
2023-04-03T04:42:28.506Z,1.46
2023-04-03T04:43:28.523Z,1.45
2023-04-03T04:44:28.534Z,1.44
2023-04-03T04:45:28.523Z,1.44
2023-04-03T04:46:28.634Z,1.43
2023-04-03T04:47:28.570Z,1.44
2023-04-03T04:48:29.585Z,1.44
2023-04-03T04:49:28.606Z,1.44
2023-04-03T04:50:28.576Z,1.43
2023-04-03T04:51:35.070Z,1.42
2023-04-03T04:52:28.545Z,1.40
2023-04-03T04:53:28.554Z,1.39
2023-04-03T04:54:28.577Z,1.39
2023-04-03T04:55:28.607Z,1.36
2023-04-03T04:56:28.556Z,1.36
2023-04-03T04:57:28.652Z,1.37
2023-04-03T04:58:28.630Z,1.37
2023-04-03T04:59:28.569Z,1.37
2023-04-03T05:00:28.613Z,1.35
2023-04-03T05:01:28.640Z,1.34
2023-04-03T05:02:28.576Z,1.31
2023-04-03T05:03:28.599Z,1.31
2023-04-03T05:04:28.708Z,1.31
2023-04-03T05:05:28.644Z,1.29
2023-04-03T05:06:28.565Z,1.27
2023-04-03T05:07:28.637Z,1.27
2023-04-03T05:08:28.604Z,1.26
2023-04-03T05:09:28.587Z,1.26
2023-04-03T05:10:28.591Z,1.25
2023-04-03T05:11:28.590Z,1.26
2023-04-03T05:12:28.592Z,1.23
2023-04-03T05:13:28.637Z,1.21
2023-04-03T05:14:28.537Z,1.19
2023-04-03T05:15:28.651Z,1.18
2023-04-03T05:16:28.689Z,1.16
2023-04-03T05:17:28.600Z,1.13
2023-04-03T05:18:28.554Z,1.12
2023-04-03T05:19:28.590Z,1.11
2023-04-03T05:20:28.577Z,1.07
2023-04-03T05:21:28.590Z,1.04
2023-04-03T05:22:28.602Z,1.04
2023-04-03T05:23:28.589Z,1.02
2023-04-03T05:24:28.594Z,1.01
2023-04-03T05:25:28.637Z,1.00
2023-04-03T05:26:28.634Z,1.01
2023-04-03T05:27:28.612Z,0.98
2023-04-03T05:28:28.599Z,0.98
2023-04-03T05:29:28.608Z,0.99
2023-04-03T05:30:28.591Z,1.01
2023-04-03T05:31:28.669Z,1.02
2023-04-03T05:32:28.834Z,1.02
2023-04-03T05:33:28.602Z,1.02
2023-04-03T05:34:28.601Z,1.02
2023-04-03T05:35:28.626Z,1.01
2023-04-03T05:36:28.673Z,1.01
2023-04-03T05:37:28.622Z,1.03
2023-04-03T05:38:28.636Z,1.01
2023-04-03T05:39:28.633Z,1.03
2023-04-03T05:40:28.632Z,1.02
2023-04-03T05:41:28.674Z,1.03
2023-04-03T05:42:28.709Z,1.02
2023-04-03T05:43:28.628Z,1.03
2023-04-03T05:44:28.657Z,1.04
2023-04-03T05:45:28.643Z,1.03
2023-04-03T05:46:28.642Z,1.05
2023-04-03T05:47:28.638Z,1.03
2023-04-03T05:48:28.622Z,1.06
2023-04-03T05:49:28.671Z,1.05
2023-04-03T05:50:28.650Z,1.04
2023-04-03T05:51:28.684Z,1.05
2023-04-03T05:52:28.635Z,1.07
2023-04-03T05:53:28.623Z,1.06
2023-04-03T05:54:28.625Z,1.07
2023-04-03T05:55:28.673Z,1.07
2023-04-03T05:56:28.614Z,1.08
2023-04-03T05:57:28.641Z,1.07
2023-04-03T05:58:28.633Z,1.08
2023-04-03T05:59:28.638Z,1.08
2023-04-03T06:00:28.643Z,1.08
2023-04-03T06:01:28.622Z,1.09
2023-04-03T06:02:31.372Z,1.09
2023-04-03T06:03:28.757Z,1.10
2023-04-03T06:04:28.704Z,1.11
2023-04-03T06:05:28.785Z,1.12
2023-04-03T06:06:28.624Z,1.12
2023-04-03T06:07:28.651Z,1.14
2023-04-03T06:08:28.637Z,1.14
2023-04-03T06:09:28.637Z,1.17
2023-04-03T06:10:28.627Z,1.17
2023-04-03T06:11:28.615Z,1.21
2023-04-03T06:12:28.691Z,1.23
2023-04-03T06:13:28.631Z,1.24
2023-04-03T06:14:28.643Z,1.26
2023-04-03T06:15:28.631Z,1.28
2023-04-03T06:16:28.673Z,1.30
2023-04-03T06:17:28.686Z,1.31
2023-04-03T06:18:28.664Z,1.33
2023-04-03T06:19:28.642Z,1.35
2023-04-03T06:20:28.685Z,1.35
2023-04-03T06:21:28.708Z,1.38
2023-04-03T06:22:28.656Z,1.40
2023-04-03T06:23:28.619Z,1.43
2023-04-03T06:24:28.683Z,1.45
2023-04-03T06:25:28.682Z,1.47
2023-04-03T06:26:28.716Z,1.48
2023-04-03T06:27:28.655Z,1.49
2023-04-03T06:28:28.712Z,1.49
2023-04-03T06:29:28.679Z,1.50
2023-04-03T06:30:28.708Z,1.51
2023-04-03T06:31:28.773Z,1.52
2023-04-03T06:32:28.722Z,1.53
2023-04-03T06:33:28.649Z,1.54
2023-04-03T06:34:28.705Z,1.55
2023-04-03T06:35:28.657Z,1.53
2023-04-03T06:36:28.928Z,1.53
2023-04-03T06:37:28.723Z,1.55
2023-04-03T06:38:28.681Z,1.56
2023-04-03T06:39:28.584Z,1.58
2023-04-03T06:40:28.643Z,1.59
2023-04-03T06:41:28.596Z,1.60
2023-04-03T06:42:28.668Z,1.60
2023-04-03T06:43:28.616Z,1.62
2023-04-03T06:44:28.603Z,1.63
2023-04-03T06:45:28.676Z,1.63
2023-04-03T06:46:28.740Z,1.65
2023-04-03T06:47:28.672Z,1.67
2023-04-03T06:48:28.670Z,1.71
2023-04-03T06:49:28.668Z,1.74
2023-04-03T06:50:28.632Z,1.75
2023-04-03T06:51:28.710Z,1.76
2023-04-03T06:52:28.651Z,1.77
2023-04-03T06:53:28.728Z,1.79
2023-04-03T06:54:28.683Z,1.79
2023-04-03T06:55:28.642Z,1.82
2023-04-03T06:56:28.666Z,1.83
2023-04-03T06:57:28.735Z,1.85
2023-04-03T06:58:28.675Z,1.85
2023-04-03T06:59:28.744Z,1.87
2023-04-03T07:00:28.653Z,1.89
2023-04-03T07:01:28.951Z,1.91
2023-04-03T07:02:28.760Z,1.95
2023-04-03T07:03:28.792Z,1.97
2023-04-03T07:04:28.722Z,1.97
2023-04-03T07:05:28.693Z,1.98
2023-04-03T07:06:28.678Z,1.98
2023-04-03T07:07:28.691Z,2.00
2023-04-03T07:08:28.717Z,2.01
2023-04-03T07:09:28.704Z,2.01
2023-04-03T07:10:28.622Z,2.04
2023-04-03T07:11:28.616Z,2.03
2023-04-03T07:12:28.622Z,2.03
2023-04-03T07:13:28.733Z,2.03
2023-04-03T07:14:28.700Z,2.05
2023-04-03T07:15:28.725Z,2.10
2023-04-03T07:16:28.708Z,2.14
2023-04-03T07:17:28.759Z,2.18
2023-04-03T07:18:28.656Z,2.25
2023-04-03T07:19:28.700Z,2.40
2023-04-03T07:20:28.673Z,2.58
2023-04-03T07:21:28.668Z,2.77
2023-04-03T07:22:28.739Z,2.91
2023-04-03T07:23:28.675Z,3.04
2023-04-03T07:24:28.712Z,3.15
2023-04-03T07:25:28.715Z,3.23
2023-04-03T07:27:06.053Z,3.28
2023-04-03T07:28:06.076Z,3.27
2023-04-03T07:29:06.106Z,3.16
2023-04-03T07:30:06.099Z,3.09
2023-04-03T07:31:06.150Z,3.01
2023-04-03T07:32:06.160Z,2.91
2023-04-03T07:33:06.133Z,2.82
2023-04-03T07:34:06.081Z,2.77
2023-04-03T07:35:06.081Z,2.73
2023-04-03T07:36:06.106Z,2.72
2023-04-03T07:37:06.094Z,2.70
2023-04-03T07:38:06.077Z,2.67
2023-04-03T07:39:06.146Z,2.67
2023-04-03T07:40:06.066Z,2.68
2023-04-03T07:41:06.063Z,2.66
2023-04-03T07:42:06.090Z,2.69
2023-04-03T07:43:06.072Z,2.72
2023-04-03T07:44:06.102Z,2.74
2023-04-03T07:45:06.092Z,2.78
2023-04-03T07:46:06.116Z,2.80
2023-04-03T07:47:06.079Z,2.82
2023-04-03T07:48:06.078Z,2.85
2023-04-03T07:49:06.083Z,2.87
2023-04-03T07:50:06.057Z,2.87
2023-04-03T07:51:06.065Z,2.86
2023-04-03T07:52:06.088Z,2.89
2023-04-03T07:53:06.089Z,2.89
2023-04-03T07:54:06.206Z,2.91
2023-04-03T07:55:06.097Z,2.94
2023-04-03T07:56:06.083Z,2.98
2023-04-03T07:57:06.153Z,3.00
2023-04-03T07:58:06.090Z,3.03
2023-04-03T07:59:06.070Z,3.08
2023-04-03T08:00:06.091Z,3.08
2023-04-03T08:01:06.088Z,3.06
2023-04-03T08:02:06.107Z,3.04
2023-04-03T08:03:06.354Z,3.03
2023-04-03T08:04:06.280Z,2.99
2023-04-03T08:05:06.369Z,2.96
2023-04-03T08:06:09.147Z,2.94
2023-04-03T08:07:06.250Z,2.90
2023-04-03T08:08:06.235Z,2.86
2023-04-03T08:09:06.267Z,2.84
2023-04-03T08:10:06.290Z,2.84
2023-04-03T08:11:06.263Z,2.79
2023-04-03T08:12:06.267Z,2.79
2023-04-03T08:13:06.288Z,2.79
2023-04-03T08:14:06.298Z,2.80
2023-04-03T08:15:06.323Z,2.82
2023-04-03T08:16:06.315Z,2.83
2023-04-03T08:17:06.389Z,2.86
2023-04-03T08:18:06.375Z,2.92
2023-04-03T08:19:09.698Z,2.96
2023-04-03T08:20:06.377Z,3.01
2023-04-03T08:21:06.381Z,3.06
2023-04-03T08:22:06.353Z,3.14
2023-04-03T08:23:06.360Z,3.24
2023-04-03T08:24:06.362Z,3.35
2023-04-03T08:25:06.425Z,3.46
2023-04-03T08:26:06.376Z,3.54
2023-04-03T08:27:06.367Z,3.62
2023-04-03T08:28:06.399Z,3.66
2023-04-03T08:29:06.363Z,3.66
2023-04-03T08:30:06.367Z,3.69
2023-04-03T08:31:06.388Z,3.74
2023-04-03T08:32:06.388Z,3.81
2023-04-03T08:33:06.453Z,3.92
2023-04-03T08:34:06.383Z,4.02
2023-04-03T08:35:06.418Z,4.05
2023-04-03T08:36:06.489Z,4.11
2023-04-03T08:37:06.412Z,4.16
2023-04-03T08:38:06.447Z,4.21
2023-04-03T08:39:06.444Z,4.21
2023-04-03T08:40:06.457Z,4.22
2023-04-03T08:41:06.489Z,4.26
2023-04-03T08:42:06.534Z,4.31
2023-04-03T08:43:09.536Z,4.35
2023-04-03T08:44:06.514Z,4.38
2023-04-03T08:45:06.526Z,4.44
2023-04-03T08:46:06.525Z,4.50
2023-04-03T08:47:06.520Z,4.53
2023-04-03T08:48:06.592Z,4.55
2023-04-03T08:49:06.516Z,4.61
2023-04-03T08:50:06.496Z,4.62
2023-04-03T08:51:10.852Z,4.68
2023-04-03T08:52:06.540Z,4.76
2023-04-03T08:53:06.512Z,4.85
2023-04-03T08:54:06.514Z,4.97
2023-04-03T08:55:06.528Z,5.03
2023-04-03T08:56:06.513Z,5.08
2023-04-03T08:57:06.560Z,5.08
2023-04-03T08:58:06.486Z,5.04
2023-04-03T08:59:06.542Z,5.00
2023-04-03T09:00:06.533Z,4.97
2023-04-03T09:01:06.534Z,4.96
2023-04-03T09:02:06.540Z,4.99
2023-04-03T09:03:06.571Z,5.06
2023-04-03T09:04:06.551Z,5.17
2023-04-03T09:05:06.562Z,5.21
2023-04-03T09:06:06.556Z,5.18
2023-04-03T09:07:06.544Z,5.10
2023-04-03T09:08:06.538Z,5.03
2023-04-03T09:09:06.528Z,5.01
2023-04-03T09:10:06.523Z,5.04
2023-04-03T09:11:06.558Z,5.17
2023-04-03T09:12:06.550Z,5.36
2023-04-03T09:13:06.504Z,5.42
2023-04-03T09:14:06.543Z,5.50
2023-04-03T09:15:06.556Z,5.54
2023-04-03T09:16:06.593Z,5.54
2023-04-03T09:17:06.553Z,5.51
2023-04-03T09:18:06.654Z,5.48
2023-04-03T09:19:06.628Z,5.47
2023-04-03T09:20:06.600Z,5.49
2023-04-03T09:21:06.602Z,5.62
2023-04-03T09:22:06.634Z,5.89
2023-04-03T09:23:06.643Z,6.20
2023-04-03T09:24:06.662Z,6.49
2023-04-03T09:25:06.672Z,6.70
2023-04-03T09:26:06.677Z,6.91
2023-04-03T09:27:06.732Z,6.98
2023-04-03T09:28:06.703Z,6.94
2023-04-03T09:29:06.717Z,6.82
2023-04-03T09:30:06.706Z,6.72
2023-04-03T09:31:06.740Z,6.72
2023-04-03T09:32:06.724Z,6.74
2023-04-03T09:33:06.801Z,6.73
2023-04-03T09:34:06.844Z,6.75
2023-04-03T09:35:19.033Z,6.77
2023-04-03T09:36:06.786Z,6.84
2023-04-03T09:37:06.825Z,7.01
2023-04-03T09:38:06.802Z,7.04
2023-04-03T09:39:06.779Z,7.06
2023-04-03T09:40:06.791Z,7.12
2023-04-03T09:41:06.789Z,7.13
2023-04-03T09:42:06.778Z,7.17
2023-04-03T09:43:06.807Z,7.45
2023-04-03T09:44:06.803Z,7.86
2023-04-03T09:45:06.790Z,8.03
2023-04-03T09:46:06.784Z,8.08
2023-04-03T09:47:06.888Z,8.22
2023-04-03T09:48:08.334Z,8.34
2023-04-03T09:49:09.883Z,8.31
2023-04-03T09:50:06.802Z,8.34
2023-04-03T09:51:06.808Z,8.25
2023-04-03T09:52:06.800Z,8.11
2023-04-03T09:53:06.807Z,7.94
2023-04-03T09:54:06.797Z,7.66
2023-04-03T09:55:06.812Z,7.56
2023-04-03T09:56:06.809Z,7.69
2023-04-03T09:57:06.854Z,7.92
2023-04-03T09:58:06.802Z,8.12
2023-04-03T09:59:06.795Z,8.30
2023-04-03T10:00:06.818Z,8.46
2023-04-03T10:01:06.806Z,8.57
2023-04-03T10:02:06.843Z,8.61
2023-04-03T10:03:06.851Z,8.58
2023-04-03T10:04:06.922Z,8.51
2023-04-03T10:05:09.856Z,8.52
2023-04-03T10:06:06.803Z,8.53
2023-04-03T10:07:06.823Z,8.58
2023-04-03T10:08:07.996Z,8.59
2023-04-03T10:09:06.823Z,8.69
2023-04-03T10:10:06.818Z,8.64
2023-04-03T10:11:06.832Z,8.66
2023-04-03T10:12:06.829Z,8.71
2023-04-03T10:13:06.883Z,8.82
2023-04-03T10:14:07.902Z,9.02
2023-04-03T10:15:06.812Z,9.02
2023-04-03T10:16:06.858Z,9.07
2023-04-03T10:17:06.818Z,9.19
2023-04-03T10:18:21.755Z,9.36
2023-04-03T10:19:06.837Z,9.49
2023-04-03T10:20:06.839Z,9.74
2023-04-03T10:21:07.747Z,9.76
2023-04-03T10:22:06.863Z,9.59
2023-04-03T10:23:06.839Z,9.32
2023-04-03T10:24:06.846Z,8.88
2023-04-03T10:25:06.821Z,8.45
2023-04-03T10:26:06.829Z,8.23
2023-04-03T10:27:06.823Z,8.19
2023-04-03T10:28:06.826Z,8.25
2023-04-03T10:29:06.861Z,8.31
2023-04-03T10:30:06.849Z,8.27
2023-04-03T10:31:06.864Z,8.07
2023-04-03T10:32:06.834Z,7.92
2023-04-03T10:33:06.894Z,7.95
2023-04-03T10:34:06.847Z,8.08
2023-04-03T10:35:06.858Z,8.27
2023-04-03T10:36:06.848Z,8.55
2023-04-03T10:37:06.841Z,8.89
2023-04-03T10:38:06.840Z,9.26
2023-04-03T10:39:06.880Z,9.48
2023-04-03T10:40:06.845Z,9.40
2023-04-03T10:41:06.830Z,9.15
2023-04-03T10:42:16.487Z,9.02
2023-04-03T10:43:06.847Z,9.05
2023-04-03T10:44:06.874Z,9.23
2023-04-03T10:45:06.880Z,9.33
2023-04-03T10:46:06.924Z,9.38
2023-04-03T10:47:06.864Z,9.44
2023-04-03T10:48:06.991Z,9.45
2023-04-03T10:49:06.864Z,9.57
2023-04-03T10:50:06.897Z,9.75
2023-04-03T10:51:06.869Z,9.84
2023-04-03T10:52:06.849Z,9.81
2023-04-03T10:53:06.886Z,9.77
2023-04-03T10:54:06.887Z,9.67
2023-04-03T10:55:06.871Z,9.52
2023-04-03T10:56:06.892Z,9.33
2023-04-03T10:57:12.430Z,9.44
2023-04-03T10:58:06.897Z,9.63
2023-04-03T10:59:06.889Z,9.95
2023-04-03T11:00:06.877Z,10.19
2023-04-03T11:01:06.918Z,10.14
2023-04-03T11:02:06.873Z,10.04
2023-04-03T11:03:06.947Z,9.96
2023-04-03T11:04:07.145Z,9.42
2023-04-03T11:05:06.888Z,8.98
2023-04-03T11:06:06.927Z,8.69
2023-04-03T11:07:06.893Z,8.60
2023-04-03T11:08:06.991Z,8.67
2023-04-03T11:09:06.907Z,8.89
2023-04-03T11:10:06.902Z,9.11
2023-04-03T11:11:06.906Z,9.40
2023-04-03T11:12:06.903Z,9.66
2023-04-03T11:13:06.934Z,9.86
2023-04-03T11:14:06.887Z,10.04
2023-04-03T11:15:06.913Z,10.19
2023-04-03T11:16:06.924Z,10.39
2023-04-03T11:17:06.900Z,10.49
2023-04-03T11:18:07.805Z,10.49
2023-04-03T11:19:06.892Z,10.55
2023-04-03T11:20:06.890Z,10.55
2023-04-03T11:21:06.897Z,10.26
2023-04-03T11:22:06.892Z,10.01
2023-04-03T11:23:06.918Z,10.08
2023-04-03T11:24:06.936Z,10.25
2023-04-03T11:25:06.912Z,10.35
2023-04-03T11:26:06.911Z,10.33
2023-04-03T11:27:06.904Z,10.32
2023-04-03T11:28:06.926Z,10.30
2023-04-03T11:29:06.915Z,10.36
2023-04-03T11:30:06.923Z,10.52
2023-04-03T11:31:06.926Z,10.82
2023-04-03T11:32:06.902Z,11.08
2023-04-03T11:33:06.975Z,11.25
2023-04-03T11:34:06.916Z,11.31
2023-04-03T11:35:06.921Z,11.25
2023-04-03T11:36:19.025Z,11.10
2023-04-03T11:37:06.923Z,11.06
2023-04-03T11:38:06.986Z,11.19
2023-04-03T11:39:06.964Z,11.34
2023-04-03T11:40:06.927Z,11.53
2023-04-03T11:41:06.936Z,11.66
2023-04-03T11:42:13.065Z,11.83
2023-04-03T11:43:06.900Z,11.76
2023-04-03T11:44:06.929Z,11.64
2023-04-03T11:45:06.939Z,11.72
2023-04-03T11:46:06.928Z,11.80
2023-04-03T11:47:06.969Z,11.75
2023-04-03T11:48:20.929Z,11.70
2023-04-03T11:49:06.952Z,11.61
2023-04-03T11:50:06.934Z,11.58
2023-04-03T11:51:06.932Z,11.82
2023-04-03T11:52:06.942Z,12.13
2023-04-03T11:53:06.941Z,12.49
2023-04-03T11:54:06.969Z,12.81
2023-04-03T11:55:06.930Z,12.75
2023-04-03T11:56:06.962Z,12.58
2023-04-03T11:57:06.939Z,12.33
2023-04-03T11:58:06.956Z,12.05
2023-04-03T11:59:06.944Z,11.99
2023-04-03T12:00:06.971Z,12.12
2023-04-03T12:01:06.970Z,12.36
2023-04-03T12:02:06.960Z,12.58
2023-04-03T12:03:07.061Z,12.55
2023-04-03T12:04:06.973Z,12.43
2023-04-03T12:05:06.974Z,12.41
2023-04-03T12:06:06.974Z,12.34
2023-04-03T12:07:06.948Z,12.36
2023-04-03T12:08:06.969Z,12.46
2023-04-03T12:09:06.980Z,12.38
2023-04-03T12:10:07.217Z,12.31
2023-04-03T12:11:06.951Z,12.40
2023-04-03T12:12:07.003Z,12.60
2023-04-03T12:13:06.953Z,12.70
2023-04-03T12:14:06.959Z,12.74
2023-04-03T12:15:06.966Z,12.71
2023-04-03T12:16:06.962Z,12.73
2023-04-03T12:17:07.031Z,12.61
2023-04-03T12:18:06.979Z,12.33
2023-04-03T12:19:06.975Z,12.12
2023-04-03T12:20:07.011Z,12.05
2023-04-03T12:21:06.992Z,11.97
2023-04-03T12:22:06.981Z,11.75
2023-04-03T12:23:07.261Z,11.34
2023-04-03T12:24:06.991Z,10.94
2023-04-03T12:25:06.985Z,10.49
2023-04-03T12:26:06.999Z,10.02
2023-04-03T12:27:06.989Z,9.64
2023-04-03T12:28:06.994Z,9.34
2023-04-03T12:29:07.011Z,8.97
2023-04-03T12:30:06.996Z,8.66
2023-04-03T12:31:07.058Z,8.71
2023-04-03T12:32:07.026Z,9.14
2023-04-03T12:33:13.262Z,9.53
2023-04-03T12:34:07.072Z,9.89
2023-04-03T12:35:07.051Z,10.18
2023-04-03T12:36:07.050Z,10.60
2023-04-03T12:37:06.995Z,11.12
2023-04-03T12:38:07.015Z,11.58
2023-04-03T12:39:07.017Z,11.91
2023-04-03T12:40:07.026Z,12.00
2023-04-03T12:41:07.032Z,11.91
2023-04-03T12:42:07.043Z,12.01
2023-04-03T12:43:07.028Z,12.15
2023-04-03T12:44:07.032Z,12.18
2023-04-03T12:45:07.021Z,12.26
2023-04-03T12:46:07.205Z,12.33
2023-04-03T12:47:07.057Z,12.29
2023-04-03T12:48:07.162Z,12.13
2023-04-03T12:49:07.032Z,12.22
2023-04-03T12:50:07.053Z,12.43
2023-04-03T12:51:07.075Z,12.55
2023-04-03T12:52:07.041Z,12.68
2023-04-03T12:53:07.066Z,12.74
2023-04-03T12:54:07.032Z,12.62
2023-04-03T12:55:07.054Z,12.65
2023-04-03T12:56:07.058Z,12.78
2023-04-03T12:57:07.109Z,12.89
2023-04-03T12:58:07.047Z,12.96
2023-04-03T12:59:07.049Z,12.87
2023-04-03T13:00:07.053Z,12.81
2023-04-03T13:01:07.055Z,12.76
2023-04-03T13:02:07.129Z,12.68
2023-04-03T13:03:07.096Z,12.53
2023-04-03T13:04:07.091Z,12.39
2023-04-03T13:05:07.119Z,12.35
2023-04-03T13:06:07.058Z,12.47
2023-04-03T13:07:07.085Z,12.66
2023-04-03T13:08:07.068Z,12.70
2023-04-03T13:09:07.062Z,12.83
2023-04-03T13:10:07.049Z,12.67
2023-04-03T13:11:07.077Z,12.28
2023-04-03T13:12:07.059Z,11.97
2023-04-03T13:13:07.093Z,11.90
2023-04-03T13:14:07.074Z,11.72
2023-04-03T13:15:07.085Z,11.62